Time;durP1;ratioP1;P1;durP2;ratioP2;P2;SDS_P1;SDS_P2;PMS_P1;PMS_P2;Temp;Humidity;BMP_temperature;BMP_pressure;BME280_temperature;BME280_humidity;BME280_pressure;Samples;Min_cycle;Max_cycle;Signal;HPM_P1;HPM_P2
2022/04/22 00:00:30;;;;;;;7.97;3.75;;;11.50;99.90;;;;;;5111701;28;20172;-49
2022/04/22 00:02:55;;;;;;;5.45;4.07;;;11.40;99.90;;;;;;5111859;28;20169;-49
2022/04/22 00:05:21;;;;;;;5.40;4.13;;;11.40;99.90;;;;;;5111568;28;20200;-49
2022/04/22 00:07:47;;;;;;;5.95;4.38;;;11.30;99.90;;;;;;5111456;28;20184;-49
2022/04/22 00:10:13;;;;;;;6.05;4.60;;;11.30;99.90;;;;;;5111275;28;20644;-49
2022/04/22 00:12:38;;;;;;;5.10;4.07;;;11.20;99.90;;;;;;5111530;28;20168;-50
2022/04/22 00:15:05;;;;;;;4.65;4.22;;;11.20;99.90;;;;;;5111223;28;20788;-49
2022/04/22 00:17:31;;;;;;;7.65;4.53;;;11.10;99.90;;;;;;5111218;28;20165;-49
2022/04/22 00:19:57;;;;;;;6.75;3.88;;;11.20;99.90;;;;;;5111398;28;20180;-49
2022/04/22 00:22:23;;;;;;;5.82;4.25;;;11.20;99.90;;;;;;5111255;28;20164;-49
2022/04/22 00:24:48;;;;;;;5.95;5.00;;;11.20;99.90;;;;;;5111444;28;20625;-49
2022/04/22 00:27:14;;;;;;;6.80;4.05;;;11.30;99.90;;;;;;5114507;28;20176;-49
2022/04/22 00:29:40;;;;;;;6.72;4.53;;;11.30;99.90;;;;;;5115381;28;20560;-49
2022/04/22 00:32:05;;;;;;;6.47;4.47;;;11.20;99.90;;;;;;5115513;28;20627;-48
2022/04/22 00:34:31;;;;;;;6.18;4.45;;;11.10;99.90;;;;;;5115179;28;20165;-49
2022/04/22 00:36:56;;;;;;;7.15;4.70;;;11.20;99.90;;;;;;5115411;28;20169;-49
2022/04/22 00:39:22;;;;;;;5.85;4.50;;;11.20;99.90;;;;;;5115154;28;20218;-49
2022/04/22 00:41:48;;;;;;;5.63;4.22;;;11.20;99.90;;;;;;5114946;28;20621;-48
2022/04/22 00:44:13;;;;;;;13.38;4.60;;;11.00;99.90;;;;;;5115106;28;20279;-48
2022/04/22 00:46:39;;;;;;;7.18;4.25;;;11.00;99.90;;;;;;5114922;28;20625;-49
2022/04/22 00:49:05;;;;;;;5.55;4.45;;;10.90;99.90;;;;;;5115144;28;20206;-49
2022/04/22 00:51:30;;;;;;;6.00;4.80;;;10.90;99.90;;;;;;5115164;28;20173;-49
2022/04/22 00:53:56;;;;;;;7.90;4.80;;;10.90;99.90;;;;;;5114986;28;20640;-49
2022/04/22 00:56:21;;;;;;;8.23;5.50;;;10.80;99.90;;;;;;5114893;28;20200;-49
2022/04/22 00:58:49;;;;;;;6.25;4.82;;;10.90;99.90;;;;;;5114642;28;20165;-49
2022/04/22 01:01:15;;;;;;;5.50;4.72;;;10.90;99.90;;;;;;5114945;27;20172;-49
2022/04/22 01:09:47;;;;;;;8.32;5.03;;;10.80;99.90;;;;;;5114696;28;20213;-49
2022/04/22 01:12:06;;;;;;;7.18;5.07;;;10.70;99.90;;;;;;5114624;28;20195;-49
2022/04/22 01:14:32;;;;;;;8.65;4.90;;;10.60;99.90;;;;;;5114246;28;20299;-49
2022/04/22 01:17:00;;;;;;;10.43;5.85;;;10.60;99.90;;;;;;5114649;28;20593;-49
2022/04/22 01:19:25;;;;;;;6.40;5.15;;;10.60;99.90;;;;;;5114576;28;20525;-49
2022/04/22 01:21:51;;;;;;;7.90;6.18;;;10.60;99.90;;;;;;5114215;28;20186;-49
2022/04/22 01:24:16;;;;;;;13.82;5.60;;;10.60;99.90;;;;;;5114294;28;20208;-48
2022/04/22 01:26:44;;;;;;;7.97;5.43;;;10.50;99.90;;;;;;5114306;28;20207;-48
2022/04/22 01:29:11;;;;;;;10.63;5.88;;;10.50;99.90;;;;;;5114156;28;20255;-49
2022/04/22 01:31:38;;;;;;;9.52;5.22;;;10.40;99.90;;;;;;5114059;27;20157;-48
2022/04/22 01:34:03;;;;;;;8.23;6.03;;;10.30;99.90;;;;;;5114255;28;20251;-50
2022/04/22 01:36:29;;;;;;;8.57;6.10;;;10.30;99.90;;;;;;5113603;28;20252;-48
2022/04/22 01:38:55;;;;;;;7.30;5.80;;;10.20;99.90;;;;;;5114216;28;20246;-50
2022/04/22 01:41:21;;;;;;;7.13;5.70;;;10.20;99.90;;;;;;5113911;28;20762;-48
2022/04/22 01:43:46;;;;;;;9.23;6.05;;;10.10;99.90;;;;;;5113756;28;20247;-48
2022/04/22 01:46:14;;;;;;;10.98;6.28;;;10.20;99.90;;;;;;5112504;28;20176;-49
2022/04/22 01:48:40;;;;;;;7.88;6.30;;;10.10;99.90;;;;;;5114033;28;20181;-48
2022/04/22 01:51:06;;;;;;;8.88;6.45;;;10.10;99.90;;;;;;5113712;28;20550;-48
2022/04/22 01:53:32;;;;;;;8.93;5.93;;;10.20;99.90;;;;;;5113538;28;20165;-49
2022/04/22 01:55:57;;;;;;;7.15;6.25;;;10.10;99.90;;;;;;5114044;28;20175;-49
2022/04/22 01:58:23;;;;;;;8.15;6.72;;;10.10;99.90;;;;;;5113617;28;20647;-49
2022/04/22 02:00:48;;;;;;;8.25;6.75;;;10.10;99.90;;;;;;5113574;28;20177;-49
2022/04/22 02:03:14;;;;;;;9.75;6.07;;;10.10;99.90;;;;;;5113479;28;20259;-48
2022/04/22 02:05:40;;;;;;;12.02;7.35;;;10.10;99.90;;;;;;5113364;28;20212;-48
2022/04/22 02:08:06;;;;;;;7.75;6.90;;;10.10;99.90;;;;;;5113432;27;20173;-48
2022/04/22 02:10:31;;;;;;;10.43;6.90;;;10.10;99.90;;;;;;5113299;28;20226;-49
2022/04/22 02:12:57;;;;;;;9.77;7.45;;;10.10;99.90;;;;;;5142480;27;20663;-49
2022/04/22 02:15:24;;;;;;;13.25;7.40;;;10.10;99.90;;;;;;5154345;27;20207;-49
2022/04/22 02:17:50;;;;;;;9.23;6.63;;;10.20;99.90;;;;;;5154452;27;20175;-49
2022/04/22 02:20:15;;;;;;;8.77;6.70;;;10.20;99.90;;;;;;5154412;27;20200;-49
2022/04/22 02:22:41;;;;;;;8.60;6.68;;;10.10;99.90;;;;;;5154512;27;20163;-49
2022/04/22 02:25:08;;;;;;;10.18;7.22;;;10.10;99.90;;;;;;5154229;27;20815;-50
2022/04/22 02:30:18;;;;;;;8.43;6.50;;;9.90;99.90;;;;;;5154157;27;20213;-49
2022/04/22 02:32:44;;;;;;;7.57;6.43;;;10.00;99.90;;;;;;5154323;27;20647;-49
2022/04/22 02:35:10;;;;;;;12.18;6.90;;;9.90;99.90;;;;;;5147654;27;20175;-49
2022/04/22 02:37:35;;;;;;;11.10;6.93;;;9.80;99.90;;;;;;5133307;27;20170;-48
2022/04/22 02:40:01;;;;;;;11.68;6.68;;;9.80;99.90;;;;;;5132434;27;20517;-48
2022/04/22 02:45:29;;;;;;;8.15;6.97;;;9.70;99.90;;;;;;5112544;28;20259;-50
2022/04/22 02:47:56;;;;;;;12.32;7.78;;;10.90;99.90;;;;;;5112436;28;20521;-49
2022/04/22 02:50:22;;;;;;;8.23;6.65;;;9.70;99.90;;;;;;5112428;28;20275;-49
2022/04/22 02:52:47;;;;;;;11.90;7.15;;;9.70;99.90;;;;;;5112717;28;20214;-49
2022/04/22 02:55:13;;;;;;;12.70;7.35;;;9.60;99.90;;;;;;5112545;28;20172;-49
2022/04/22 02:57:40;;;;;;;7.95;6.63;;;9.60;99.90;;;;;;5112397;28;20178;-50
2022/04/22 03:00:06;;;;;;;8.52;7.05;;;9.60;99.90;;;;;;5112251;28;20172;-49
2022/04/22 03:02:32;;;;;;;10.38;6.22;;;9.60;99.90;;;;;;5112393;28;20199;-49
2022/04/22 03:04:58;;;;;;;7.68;6.30;;;9.60;99.90;;;;;;5112367;28;20239;-50
2022/04/22 03:07:23;;;;;;;9.73;7.10;;;9.50;99.90;;;;;;5112255;28;20259;-51
2022/04/22 03:09:49;;;;;;;7.47;6.65;;;9.50;99.90;;;;;;5112216;28;20223;-50
2022/04/22 03:12:15;;;;;;;12.40;7.70;;;9.50;99.90;;;;;;5112133;28;20164;-51
2022/04/22 03:14:40;;;;;;;9.50;6.93;;;9.50;99.90;;;;;;5112091;27;20228;-51
2022/04/22 03:17:06;;;;;;;8.30;6.50;;;9.50;99.90;;;;;;5111863;28;20176;-49
2022/04/22 03:19:32;;;;;;;8.73;7.25;;;9.50;99.90;;;;;;5112030;28;20169;-49
2022/04/22 03:21:58;;;;;;;9.02;6.70;;;9.50;99.90;;;;;;5112280;28;20172;-49
2022/04/22 03:24:23;;;;;;;8.02;7.22;;;9.50;99.90;;;;;;5111783;28;20203;-48
2022/04/22 03:26:49;;;;;;;8.60;6.75;;;9.50;99.90;;;;;;5111868;28;20192;-51
2022/04/22 03:29:15;;;;;;;8.25;6.88;;;9.50;99.90;;;;;;5111799;28;20251;-51
2022/04/22 03:31:40;;;;;;;11.60;7.60;;;9.40;99.90;;;;;;5111908;28;20172;-51
2022/04/22 03:34:06;;;;;;;12.73;7.95;;;9.40;99.90;;;;;;5111596;28;20164;-49
2022/04/22 03:36:31;;;;;;;10.70;7.90;;;9.40;99.90;;;;;;5111775;28;20225;-48
2022/04/22 03:38:57;;;;;;;10.45;7.78;;;9.40;99.90;;;;;;5110754;28;20160;-48
2022/04/22 03:41:22;;;;;;;9.40;7.70;;;9.40;99.90;;;;;;5111695;28;20644;-49
2022/04/22 03:43:48;;;;;;;13.52;8.88;;;9.40;99.90;;;;;;5111484;28;20247;-48
2022/04/22 03:46:13;;;;;;;11.73;8.50;;;9.40;99.90;;;;;;5111532;28;20208;-49
2022/04/22 03:48:39;;;;;;;11.20;8.60;;;9.50;99.90;;;;;;5111574;28;20217;-48
2022/04/22 03:51:05;;;;;;;12.63;8.80;;;9.50;99.90;;;;;;5111844;28;20173;-49
2022/04/22 03:53:33;;;;;;;14.70;9.55;;;9.50;99.90;;;;;;5111692;28;20530;-48
2022/04/22 03:58:10;;;;;;;11.50;8.18;;;9.50;99.90;;;;;;5111479;28;20157;-48
2022/04/22 03:58:44;;;;;;;10.90;8.10;;;9.50;99.90;;;;;;5111320;28;20957;-49
2022/04/22 04:01:10;;;;;;;14.73;8.63;;;9.40;99.90;;;;;;5111239;28;20168;-49
2022/04/22 04:03:35;;;;;;;11.23;8.38;;;9.40;99.90;;;;;;5111412;28;20172;-49
2022/04/22 04:06:01;;;;;;;13.70;8.43;;;9.40;99.90;;;;;;5111188;28;20215;-48
2022/04/22 04:08:26;;;;;;;10.82;8.35;;;9.40;99.90;;;;;;5111652;28;20625;-50
2022/04/22 04:16:07;;;;;;;14.15;9.70;;;9.40;99.90;;;;;;5110871;28;20293;-48
2022/04/22 04:18:35;;;;;;;14.52;9.15;;;9.40;99.90;;;;;;5111133;28;20531;-48
2022/04/22 04:23:46;;;;;;;12.95;9.57;;;9.40;99.90;;;;;;5110925;28;20171;-49
2022/04/22 04:26:15;;;;;;;14.07;9.85;;;9.40;99.90;;;;;;5110832;28;20205;-48
2022/04/22 04:28:42;;;;;;;13.45;9.25;;;9.40;99.90;;;;;;5111420;28;20172;-49
2022/04/22 04:31:08;;;;;;;17.23;10.23;;;9.30;99.90;;;;;;5111059;28;20305;-49
2022/04/22 04:33:34;;;;;;;15.13;10.30;;;9.40;99.90;;;;;;5110996;28;20193;-50
2022/04/22 04:36:00;;;;;;;12.63;9.65;;;9.40;99.90;;;;;;5111314;28;20253;-49
2022/04/22 04:38:27;;;;;;;15.18;10.18;;;9.30;99.90;;;;;;5111518;28;20251;-48
2022/04/22 04:40:52;;;;;;;14.57;10.48;;;9.40;99.90;;;;;;5110898;28;20171;-49
2022/04/22 04:43:19;;;;;;;13.00;10.05;;;9.40;99.90;;;;;;5111011;28;20173;-48
2022/04/22 04:45:45;;;;;;;15.57;10.95;;;9.40;99.90;;;;;;5111256;28;20208;-49
2022/04/22 04:48:11;;;;;;;15.10;10.43;;;9.30;99.90;;;;;;5111071;28;20247;-49
2022/04/22 04:50:45;;;;;;;14.68;10.73;;;9.30;99.90;;;;;;5111153;28;20172;-48
2022/04/22 04:53:12;;;;;;;13.80;9.77;;;9.30;99.90;;;;;;5111173;28;20165;-49
2022/04/22 04:55:38;;;;;;;15.60;10.07;;;9.30;99.90;;;;;;5110946;28;20202;-49
2022/04/22 04:58:04;;;;;;;14.68;10.95;;;9.30;99.90;;;;;;5110784;28;20527;-48
2022/04/22 05:00:29;;;;;;;15.20;11.10;;;9.30;99.90;;;;;;5110875;28;20161;-49
2022/04/22 05:02:55;;;;;;;14.50;10.65;;;9.40;99.90;;;;;;5111235;28;20598;-49
2022/04/22 05:05:21;;;;;;;14.63;10.30;;;9.40;99.90;;;;;;5110960;28;20204;-50
2022/04/22 05:07:51;;;;;;;17.88;10.90;;;9.40;99.90;;;;;;5110608;28;20182;-50
2022/04/22 05:10:18;;;;;;;17.27;10.90;;;9.50;99.90;;;;;;5110975;28;20196;-50
2022/04/22 05:12:48;;;;;;;16.35;10.07;;;9.50;99.90;;;;;;5113240;28;20200;-50
2022/04/22 05:15:14;;;;;;;12.82;10.45;;;9.50;99.90;;;;;;5114477;28;20228;-50
2022/04/22 05:17:41;;;;;;;14.93;10.57;;;9.50;99.90;;;;;;5114400;28;20165;-51
2022/04/22 05:20:10;;;;;;;18.35;11.20;;;9.40;99.90;;;;;;5114147;28;20223;-51
2022/04/22 05:22:35;;;;;;;15.75;10.88;;;9.50;99.90;;;;;;5114512;28;20584;-51
2022/04/22 05:25:01;;;;;;;20.10;11.43;;;9.60;99.90;;;;;;5113689;28;20200;-51
2022/04/22 05:27:26;;;;;;;14.52;10.15;;;9.70;99.90;;;;;;5114494;28;20247;-51
2022/04/22 05:32:38;;;;;;;19.05;12.15;;;9.80;99.90;;;;;;5113867;28;20171;-50
2022/04/22 05:35:06;;;;;;;18.38;12.90;;;9.80;99.90;;;;;;5113743;28;20229;-50
2022/04/22 05:38:10;;;;;;;15.50;11.35;;;9.90;99.90;;;;;;5113820;28;20168;-50
2022/04/22 05:40:37;;;;;;;14.23;11.25;;;10.00;99.90;;;;;;5051012;28;20261;-51
2022/04/22 05:43:06;;;;;;;17.63;11.38;;;10.00;99.90;;;;;;5051033;28;20248;-51
2022/04/22 05:45:32;;;;;;;16.70;12.48;;;10.10;99.90;;;;;;5080580;28;20273;-51
2022/04/22 05:47:58;;;;;;;17.50;12.38;;;10.10;99.90;;;;;;5113878;28;20157;-51
2022/04/22 05:50:25;;;;;;;16.15;11.00;;;10.20;99.90;;;;;;5113735;28;20647;-50
2022/04/22 05:52:52;;;;;;;16.40;12.23;;;10.30;99.90;;;;;;5113411;28;20517;-49
2022/04/22 05:55:20;;;;;;;16.60;11.75;;;10.30;99.90;;;;;;5113522;28;20559;-51
2022/04/22 05:57:48;;;;;;;17.38;11.82;;;10.30;99.90;;;;;;5113562;28;20156;-50
2022/04/22 06:00:15;;;;;;;15.93;10.00;;;10.30;99.90;;;;;;5113547;28;20196;-49
2022/04/22 06:02:43;;;;;;;15.43;10.77;;;10.50;99.90;;;;;;5113460;27;20177;-50
2022/04/22 06:05:14;;;;;;;17.00;10.52;;;10.40;99.90;;;;;;5113156;28;20233;-51
2022/04/22 06:07:42;;;;;;;19.65;12.55;;;10.50;99.90;;;;;;5113140;28;20157;-49
2022/04/22 06:12:53;;;;;;;17.10;13.05;;;10.60;99.90;;;;;;5113296;28;20176;-52
2022/04/22 06:15:19;;;;;;;17.23;11.55;;;10.60;99.90;;;;;;5112999;28;20220;-52
2022/04/22 06:17:46;;;;;;;15.57;11.00;;;10.60;99.90;;;;;;5113078;28;20629;-52
2022/04/22 06:20:11;;;;;;;17.83;11.85;;;10.60;99.90;;;;;;5112908;27;20708;-51
2022/04/22 06:22:37;;;;;;;16.45;11.55;;;10.80;99.90;;;;;;5113246;28;20256;-51
2022/04/22 06:25:03;;;;;;;16.20;11.65;;;10.90;99.90;;;;;;5112912;28;20201;-47
2022/04/22 06:27:37;;;;;;;17.48;12.68;;;11.00;99.90;;;;;;5112984;28;20173;-49
2022/04/22 06:30:08;;;;;;;18.55;12.02;;;11.20;99.90;;;;;;5113056;28;20200;-51
2022/04/22 06:32:36;;;;;;;15.55;11.20;;;11.30;99.90;;;;;;5112830;28;20168;-45
2022/04/22 06:35:03;;;;;;;15.15;11.43;;;11.40;99.90;;;;;;5113050;28;20169;-44
2022/04/22 06:37:34;;;;;;;19.25;12.15;;;11.40;99.90;;;;;;5112956;28;20200;-47
2022/04/22 06:45:46;;;;;;;17.45;11.55;;;11.80;99.90;;;;;;5112897;28;20187;-53
2022/04/22 06:45:48;;;;;;;15.77;11.40;;;12.00;99.90;;;;;;5112444;28;20772;-50
2022/04/22 06:48:17;;;;;;;14.75;11.20;;;11.90;99.90;;;;;;5112747;28;20264;-50
2022/04/22 06:50:46;;;;;;;15.95;11.45;;;11.90;99.90;;;;;;5112846;28;20592;-50
2022/04/22 06:53:13;;;;;;;16.35;11.23;;;11.90;99.90;;;;;;5112285;28;20185;-50
2022/04/22 06:55:39;;;;;;;18.42;12.02;;;11.90;99.90;;;;;;5112435;28;20181;-50
2022/04/22 06:58:09;;;;;;;15.82;12.68;;;12.10;99.90;;;;;;5112447;28;20171;-47
2022/04/22 07:00:34;;;;;;;14.07;9.95;;;12.30;99.90;;;;;;5112656;28;20521;-51
2022/04/22 07:03:00;;;;;;;17.25;12.02;;;12.30;99.90;;;;;;5112252;28;20168;-52
2022/04/22 07:05:26;;;;;;;15.38;10.95;;;12.40;99.90;;;;;;5118810;27;20238;-50
2022/04/22 07:07:52;;;;;;;21.17;12.20;;;12.40;99.90;;;;;;5147004;27;20247;-50
2022/04/22 07:10:18;;;;;;;15.05;11.43;;;12.40;99.90;;;;;;5154522;27;20187;-52
2022/04/22 07:12:44;;;;;;;15.48;10.52;;;12.50;99.90;;;;;;5149241;27;20168;-56
2022/04/22 07:15:10;;;;;;;14.40;10.98;;;12.30;99.90;;;;;;5136025;27;20554;-49
2022/04/22 07:17:40;;;;;;;14.40;11.70;;;12.30;99.90;;;;;;5152921;27;20232;-51
2022/04/22 07:20:13;;;;;;;16.35;10.82;;;12.30;99.90;;;;;;5153116;27;20210;-47
2022/04/22 07:22:40;;;;;;;14.60;11.25;;;12.40;99.90;;;;;;5153197;27;20167;-50
2022/04/22 07:25:08;;;;;;;17.77;11.23;;;12.60;99.90;;;;;;5152788;27;20259;-52
2022/04/22 07:27:36;;;;;;;14.75;10.85;;;12.70;99.90;;;;;;5153069;27;20514;-52
2022/04/22 07:30:07;;;;;;;13.50;10.68;;;12.80;99.90;;;;;;5153227;27;20168;-49
2022/04/22 07:32:35;;;;;;;17.90;11.32;;;12.70;99.90;;;;;;5153120;27;20175;-51
2022/04/22 07:35:00;;;;;;;14.18;11.02;;;12.70;99.90;;;;;;5152585;27;20227;-48
2022/04/22 07:37:26;;;;;;;14.25;12.13;;;12.60;99.90;;;;;;5153003;27;20238;-51
2022/04/22 07:39:52;;;;;;;14.63;11.73;;;12.80;99.90;;;;;;5152739;27;20575;-51
2022/04/22 07:42:19;;;;;;;15.18;11.02;;;12.70;99.90;;;;;;5152585;27;20163;-51
2022/04/22 07:47:36;;;;;;;12.55;9.88;;;13.00;99.90;;;;;;5152778;27;20638;-51
2022/04/22 07:50:06;;;;;;;13.20;11.10;;;13.20;99.90;;;;;;5152803;27;20248;-51
2022/04/22 07:52:36;;;;;;;15.30;10.73;;;13.10;99.90;;;;;;5152434;27;20167;-51
2022/04/22 07:55:03;;;;;;;18.60;10.57;;;13.00;99.90;;;;;;5152502;27;20574;-51
2022/04/22 07:57:28;;;;;;;13.10;10.02;;;12.80;99.90;;;;;;5152920;27;20223;-51
2022/04/22 07:59:54;;;;;;;11.45;9.98;;;12.70;99.90;;;;;;5152763;27;20155;-52
2022/04/22 08:02:20;;;;;;;14.15;10.27;;;12.60;99.90;;;;;;5134078;27;20206;-52
2022/04/22 08:04:45;;;;;;;15.70;10.80;;;12.60;99.90;;;;;;5152226;27;20199;-51
2022/04/22 08:07:11;;;;;;;13.18;9.65;;;12.60;99.90;;;;;;5152290;27;20173;-52
2022/04/22 08:09:38;;;;;;;11.27;10.07;;;12.60;99.90;;;;;;5152514;27;20261;-52
2022/04/22 08:12:04;;;;;;;16.50;9.80;;;12.60;99.90;;;;;;5152555;27;20172;-52
2022/04/22 08:14:31;;;;;;;13.68;10.20;;;12.70;99.90;;;;;;5152049;27;20211;-52
2022/04/22 08:16:58;;;;;;;11.00;8.20;;;13.00;99.90;;;;;;5152834;27;20300;-52
2022/04/22 08:19:24;;;;;;;14.55;10.98;;;13.30;99.90;;;;;;5133742;27;20167;-52
2022/04/22 08:21:49;;;;;;;15.43;10.77;;;13.50;99.90;;;;;;5152532;27;20186;-52
2022/04/22 08:24:15;;;;;;;13.65;9.70;;;13.70;99.90;;;;;;5152294;27;20569;-51
2022/04/22 08:26:40;;;;;;;8.68;7.78;;;14.00;99.90;;;;;;5152247;27;20179;-52
2022/04/22 08:29:06;;;;;;;10.20;8.25;;;14.20;99.90;;;;;;5152447;27;20191;-53
2022/04/22 08:31:31;;;;;;;11.02;7.50;;;14.30;99.90;;;;;;5152026;27;20220;-52
2022/04/22 08:33:57;;;;;;;9.63;8.63;;;14.50;99.90;;;;;;5152368;27;20215;-52
2022/04/22 08:36:30;;;;;;;9.90;8.52;;;14.60;99.90;;;;;;5152122;27;20174;-52
2022/04/22 08:38:57;;;;;;;13.60;9.70;;;14.70;99.90;;;;;;5152370;27;20172;-52
2022/04/22 08:41:23;;;;;;;10.68;9.23;;;14.80;99.90;;;;;;5151911;27;20171;-52
2022/04/22 08:43:53;;;;;;;11.65;8.85;;;14.90;99.90;;;;;;5152004;27;20607;-52
2022/04/22 08:51:49;;;;;;;9.32;8.23;;;15.20;99.90;;;;;;5156003;27;20533;-52
2022/04/22 08:54:16;;;;;;;10.77;9.35;;;15.30;99.90;;;;;;5156238;27;20168;-52
2022/04/22 08:56:44;;;;;;;10.20;8.65;;;15.40;99.90;;;;;;5155993;27;20163;-52
2022/04/22 08:59:09;;;;;;;11.20;8.73;;;15.40;99.90;;;;;;5155782;27;20159;-52
2022/04/22 09:01:37;;;;;;;10.98;8.25;;;15.40;99.90;;;;;;5155736;27;20502;-52
2022/04/22 09:04:04;;;;;;;10.98;8.15;;;15.00;99.90;;;;;;5155777;27;20163;-52
2022/04/22 09:06:30;;;;;;;10.43;8.70;;;14.90;99.90;;;;;;5137205;27;20167;-52
2022/04/22 09:08:57;;;;;;;9.32;8.32;;;15.10;99.90;;;;;;5155992;27;20179;-52
2022/04/22 09:11:24;;;;;;;10.23;8.52;;;15.00;99.90;;;;;;5155380;27;20168;-52
2022/04/22 09:13:50;;;;;;;11.00;8.45;;;15.10;99.90;;;;;;5155821;27;20179;-52
2022/04/22 09:16:22;;;;;;;8.73;7.53;;;15.60;99.90;;;;;;5155353;27;20223;-52
2022/04/22 09:18:57;;;;;;;6.65;5.82;;;15.50;99.90;;;;;;5155534;27;20159;-52
2022/04/22 09:21:24;;;;;;;8.35;6.30;;;15.50;99.90;;;;;;5136844;27;20182;-52
2022/04/22 09:23:50;;;;;;;6.18;5.25;;;15.50;99.90;;;;;;5155667;27;20218;-51
2022/04/22 09:26:22;;;;;;;8.38;6.38;;;15.30;99.90;;;;;;5155441;27;20234;-52
2022/04/22 09:29:01;;;;;;;6.65;5.95;;;15.50;99.90;;;;;;5155172;27;20635;-52
2022/04/22 09:31:28;;;;;;;6.65;5.22;;;15.70;99.90;;;;;;5155560;27;20163;-52
2022/04/22 09:33:54;;;;;;;6.85;6.15;;;15.50;99.90;;;;;;5155387;27;20163;-52
2022/04/22 09:42:43;;;;;;;7.55;5.70;;;15.50;99.90;;;;;;5155220;27;20174;-52
2022/04/22 09:45:09;;;;;;;7.00;6.30;;;15.60;99.90;;;;;;5155114;27;20294;-52
2022/04/22 09:47:36;;;;;;;8.60;5.55;;;15.70;99.90;;;;;;5154823;27;20167;-52
2022/04/22 09:50:05;;;;;;;7.38;5.60;;;15.90;99.90;;;;;;5154740;27;20192;-52
2022/04/22 09:52:34;;;;;;;7.43;6.40;;;16.00;99.90;;;;;;5136266;27;20250;-52
2022/04/22 09:55:03;;;;;;;7.65;6.30;;;16.10;99.90;;;;;;5155043;27;20194;-52
2022/04/22 09:57:48;;;;;;;8.00;6.63;;;16.10;99.90;;;;;;5154644;27;20159;-52
2022/04/22 10:00:16;;;;;;;6.35;5.53;;;16.00;99.90;;;;;;5154561;27;20219;-52
2022/04/22 10:02:42;;;;;;;10.00;7.13;;;16.00;99.90;;;;;;5154595;27;20242;-51
2022/04/22 10:05:09;;;;;;;8.48;6.90;;;16.00;99.90;;;;;;5154462;27;20243;-52
2022/04/22 10:07:36;;;;;;;8.40;6.90;;;16.00;99.90;;;;;;5154449;27;20260;-52
2022/04/22 10:10:03;;;;;;;9.05;6.93;;;15.90;99.90;;;;;;5154361;27;20226;-52
2022/04/22 10:12:31;;;;;;;19.00;6.95;;;15.70;99.90;;;;;;5154562;27;20163;-52
2022/04/22 10:15:01;;;;;;;8.25;7.00;;;15.60;99.90;;;;;;5154522;27;20272;-52
2022/04/22 10:17:27;;;;;;;8.38;7.40;;;15.70;99.90;;;;;;5154802;27;20163;-52
2022/04/22 10:19:53;;;;;;;9.68;7.00;;;15.50;99.90;;;;;;5154211;27;20227;-52
2022/04/22 10:22:19;;;;;;;7.30;6.45;;;15.70;99.90;;;;;;5154198;27;20653;-52
2022/04/22 10:24:46;;;;;;;9.80;6.78;;;15.70;99.90;;;;;;5154301;27;20199;-52
2022/04/22 10:27:14;;;;;;;12.95;6.63;;;15.70;99.90;;;;;;5154294;27;20635;-52
2022/04/22 10:29:42;;;;;;;7.25;6.30;;;15.90;99.90;;;;;;5153952;27;20639;-52
2022/04/22 10:32:11;;;;;;;8.82;6.40;;;16.00;99.90;;;;;;5135425;27;20623;-52
2022/04/22 10:34:41;;;;;;;7.60;6.80;;;16.20;99.90;;;;;;5154234;27;20171;-51
2022/04/22 10:37:20;;;;;;;7.10;6.40;;;16.20;99.90;;;;;;5153944;27;20215;-52
2022/04/22 10:39:51;;;;;;;8.02;6.95;;;16.50;99.90;;;;;;5153638;27;20650;-52
2022/04/22 10:42:16;;;;;;;8.35;6.95;;;16.80;99.90;;;;;;5153925;27;20228;-52
2022/04/22 10:47:47;;;;;;;8.07;7.10;;;17.40;99.90;;;;;;5153580;27;20211;-52
2022/04/22 10:50:23;;;;;;;8.80;6.93;;;17.80;99.90;;;;;;5153521;27;20296;-52
2022/04/22 10:53:02;;;;;;;7.63;6.40;;;17.90;99.90;;;;;;5153657;27;20163;-52
2022/04/22 10:55:28;;;;;;;7.50;6.80;;;17.40;99.90;;;;;;5153802;27;20165;-52
2022/04/22 10:58:12;;;;;;;8.65;6.65;;;17.60;99.90;;;;;;5153442;27;20160;-52
2022/04/22 11:00:43;;;;;;;9.90;6.18;;;17.30;99.90;;;;;;5153501;27;20163;-52
2022/04/22 11:03:20;;;;;;;7.90;7.10;;;17.20;99.90;;;;;;5153343;27;20283;-52
2022/04/22 11:05:56;;;;;;;8.50;7.10;;;16.90;99.90;;;;;;5153497;27;20237;-52
2022/04/22 11:08:28;;;;;;;6.95;6.28;;;16.90;99.90;;;;;;5153306;27;20154;-52
2022/04/22 11:10:54;;;;;;;9.02;6.53;;;17.40;99.90;;;;;;5152818;27;20254;-52
2022/04/22 11:13:34;;;;;;;8.38;6.63;;;17.80;99.90;;;;;;5153082;27;20242;-52
2022/04/22 11:16:07;;;;;;;6.82;6.13;;;18.10;99.90;;;;;;5152891;27;20211;-52
2022/04/22 11:18:34;;;;;;;7.18;6.47;;;18.30;99.90;;;;;;5153304;27;20163;-53
2022/04/22 11:21:04;;;;;;;8.55;6.90;;;18.70;99.90;;;;;;5152865;27;20168;-52
2022/04/22 11:23:37;;;;;;;7.30;6.57;;;18.60;99.90;;;;;;5152930;27;20215;-52
2022/04/22 11:26:04;;;;;;;7.65;6.97;;;18.80;99.50;;;;;;5152785;27;20199;-52
2022/04/22 11:28:37;;;;;;;7.47;6.78;;;19.30;98.10;;;;;;5152891;27;20187;-52
2022/04/22 11:31:05;;;;;;;7.53;6.40;;;19.60;98.20;;;;;;5152792;27;20163;-52
2022/04/22 11:33:52;;;;;;;8.45;6.75;;;18.90;97.10;;;;;;5152682;27;20554;-52
2022/04/22 11:36:17;;;;;;;7.30;6.60;;;19.00;99.90;;;;;;5152758;27;20245;-52
2022/04/22 11:38:54;;;;;;;8.35;7.18;;;18.70;99.60;;;;;;5152817;27;20167;-52
2022/04/22 11:41:21;;;;;;;7.35;6.55;;;18.50;98.80;;;;;;5152519;27;20170;-52
2022/04/22 11:43:48;;;;;;;10.88;6.75;;;18.20;98.60;;;;;;5152901;27;20175;-52
2022/04/22 11:46:18;;;;;;;7.93;7.13;;;18.60;99.70;;;;;;5152763;27;20256;-52
2022/04/22 11:48:50;;;;;;;8.00;7.15;;;18.80;99.30;;;;;;5152546;27;20167;-52
2022/04/22 11:51:18;;;;;;;13.18;8.65;;;18.60;99.70;;;;;;5152764;27;20198;-52
2022/04/22 11:53:51;;;;;;;8.98;7.80;;;18.30;98.50;;;;;;5152973;27;20171;-52
2022/04/22 11:56:22;;;;;;;8.38;6.97;;;18.00;98.80;;;;;;5152669;27;20527;-52
2022/04/22 11:58:55;;;;;;;8.65;6.28;;;18.00;99.40;;;;;;5152376;27;20167;-52
2022/04/22 12:06:58;;;;;;;16.65;12.25;;;18.50;97.80;;;;;;5152854;27;20182;-52
2022/04/22 12:09:25;;;;;;;7.32;6.63;;;19.20;99.10;;;;;;5152730;27;20216;-52
2022/04/22 12:11:51;;;;;;;6.68;6.07;;;19.00;97.40;;;;;;5152299;27;20171;-52
2022/04/22 12:14:25;;;;;;;7.57;5.68;;;18.80;97.20;;;;;;5152193;27;20163;-52
2022/04/22 12:17:02;;;;;;;6.20;5.50;;;18.80;96.30;;;;;;5152299;27;20220;-52
2022/04/22 12:19:28;;;;;;;10.60;8.80;;;20.60;97.00;;;;;;5152419;27;20191;-52
2022/04/22 12:21:55;;;;;;;12.93;9.25;;;18.90;97.50;;;;;;5155554;27;20190;-52
2022/04/22 12:24:23;;;;;;;7.18;6.47;;;19.00;97.40;;;;;;5156564;27;20181;-52
2022/04/22 12:26:51;;;;;;;9.63;8.27;;;18.70;96.70;;;;;;5156645;27;20199;-52
2022/04/22 12:29:24;;;;;;;14.77;11.30;;;19.10;95.60;;;;;;5156442;27;20268;-52
2022/04/22 12:31:51;;;;;;;7.20;6.50;;;19.50;96.20;;;;;;5156545;27;20253;-52
2022/04/22 12:34:31;;;;;;;10.77;5.93;;;19.20;94.20;;;;;;5156180;27;20155;-52
2022/04/22 12:36:59;;;;;;;8.60;6.10;;;18.90;94.10;;;;;;5156583;27;20170;-52
2022/04/22 12:39:42;;;;;;;6.65;6.05;;;19.10;95.00;;;;;;5156671;27;20152;-52
2022/04/22 12:42:29;;;;;;;6.78;6.05;;;19.50;94.10;;;;;;5156394;27;20171;-52
2022/04/22 12:53:41;;;;;;;6.95;5.90;;;18.60;94.00;;;;;;5156145;27;20202;-53
2022/04/22 12:56:09;;;;;;;6.40;5.70;;;18.70;94.70;;;;;;5156257;27;20179;-53
2022/04/22 12:58:54;;;;;;;6.28;5.68;;;18.80;94.20;;;;;;5155984;27;20169;-53
2022/04/22 13:01:37;;;;;;;7.10;6.00;;;18.60;94.20;;;;;;5155931;27;20253;-52
2022/04/22 13:04:05;;;;;;;6.82;6.18;;;18.80;94.50;;;;;;5155635;27;20205;-53
2022/04/22 13:06:45;;;;;;;9.20;7.55;;;18.90;93.90;;;;;;5155631;27;20562;-53
2022/04/22 13:09:12;;;;;;;13.93;11.27;;;18.90;93.20;;;;;;5128311;27;20180;-53
2022/04/22 13:11:38;;;;;;;10.88;9.00;;;18.90;93.30;;;;;;5114446;28;20184;-52
2022/04/22 13:14:04;;;;;;;10.73;6.78;;;19.30;93.20;;;;;;5114465;28;20277;-52
2022/04/22 13:16:31;;;;;;;8.98;7.15;;;19.70;93.60;;;;;;5114073;28;20208;-52
2022/04/22 13:18:57;;;;;;;6.03;5.43;;;20.00;93.50;;;;;;5114808;28;20210;-52
2022/04/22 13:21:22;;;;;;;6.30;5.70;;;20.20;93.20;;;;;;5114205;28;20169;-52
2022/04/22 13:23:50;;;;;;;12.73;10.40;;;20.40;91.80;;;;;;5114383;28;20325;-53
2022/04/22 13:26:16;;;;;;;7.40;5.15;;;21.00;91.20;;;;;;5114521;28;20201;-52
2022/04/22 13:28:41;;;;;;;14.65;10.23;;;21.00;90.80;;;;;;5114097;28;20201;-52
2022/04/22 13:31:07;;;;;;;7.43;5.65;;;21.20;90.70;;;;;;5113997;28;20173;-52
2022/04/22 13:33:33;;;;;;;8.65;5.75;;;20.80;88.90;;;;;;5113068;28;20171;-52
2022/04/22 13:36:02;;;;;;;5.28;4.78;;;20.60;94.80;;;;;;5114171;28;20161;-52
2022/04/22 13:38:32;;;;;;;6.82;6.13;;;19.90;96.00;;;;;;5114193;28;20251;-52
2022/04/22 13:40:58;;;;;;;6.40;5.10;;;19.70;97.20;;;;;;5114111;28;20670;-52
2022/04/22 13:43:28;;;;;;;8.15;5.70;;;19.30;97.60;;;;;;5113944;28;20185;-52